sensor_id;sensor_type;location;lat;lon;timestamp;pressure;altitude;pressure_sealevel;temperature;humidity
64253;BME280;50592;52.958;-7.470;2024-02-21T00:04:44;99929.16;;;6.29;100.00
64253;BME280;50592;52.958;-7.470;2024-02-21T00:07:45;99920.31;;;6.30;100.00
64253;BME280;50592;52.958;-7.470;2024-02-21T00:10:52;99924.59;;;6.31;100.00
64253;BME280;50592;52.958;-7.470;2024-02-21T00:13:18;99916.53;;;6.23;100.00
64253;BME280;50592;52.958;-7.470;2024-02-21T00:16:30;99908.28;;;6.27;100.00
64253;BME280;50592;52.958;-7.470;2024-02-21T00:19:15;99902.91;;;6.29;100.00
64253;BME280;50592;52.958;-7.470;2024-02-21T00:21:44;99884.41;;;6.30;100.00
64253;BME280;50592;52.958;-7.470;2024-02-21T00:28:48;99850.16;;;6.42;100.00
64253;BME280;50592;52.958;-7.470;2024-02-21T00:53:30;99778.44;;;6.92;100.00
64253;BME280;50592;52.958;-7.470;2024-02-21T01:00:42;99748.97;;;7.28;100.00
64253;BME280;50592;52.958;-7.470;2024-02-21T01:04:01;99723.50;;;7.39;100.00
64253;BME280;50592;52.958;-7.470;2024-02-21T01:08:00;99714.47;;;7.51;100.00
64253;BME280;50592;52.958;-7.470;2024-02-21T01:11:17;99704.88;;;7.60;100.00
64253;BME280;50592;52.958;-7.470;2024-02-21T01:14:03;99700.03;;;7.65;100.00
64253;BME280;50592;52.958;-7.470;2024-02-21T01:16:30;99682.19;;;7.59;100.00
64253;BME280;50592;52.958;-7.470;2024-02-21T01:18:56;99681.75;;;7.64;100.00
64253;BME280;50592;52.958;-7.470;2024-02-21T01:22:51;99664.56;;;7.69;100.00
64253;BME280;50592;52.958;-7.470;2024-02-21T01:25:39;99662.06;;;7.68;100.00
64253;BME280;50592;52.958;-7.470;2024-02-21T01:29:11;99637.75;;;7.66;100.00
64253;BME280;50592;52.958;-7.470;2024-02-21T01:31:37;99631.78;;;7.64;100.00
64253;BME280;50592;52.958;-7.470;2024-02-21T01:34:03;99620.81;;;7.68;100.00
64253;BME280;50592;52.958;-7.470;2024-02-21T01:36:36;99603.78;;;7.73;100.00
64253;BME280;50592;52.958;-7.470;2024-02-21T01:39:02;99592.28;;;7.74;100.00
64253;BME280;50592;52.958;-7.470;2024-02-21T01:41:31;99574.09;;;7.80;100.00
64253;BME280;50592;52.958;-7.470;2024-02-21T01:43:57;99554.19;;;7.78;100.00
64253;BME280;50592;52.958;-7.470;2024-02-21T01:46:24;99536.16;;;7.83;100.00
64253;BME280;50592;52.958;-7.470;2024-02-21T01:48:56;99524.88;;;7.91;100.00
64253;BME280;50592;52.958;-7.470;2024-02-21T01:51:23;99518.28;;;7.87;100.00
64253;BME280;50592;52.958;-7.470;2024-02-21T01:53:50;99509.25;;;7.89;100.00
64253;BME280;50592;52.958;-7.470;2024-02-21T01:56:17;99490.00;;;7.89;100.00
64253;BME280;50592;52.958;-7.470;2024-02-21T01:58:46;99482.41;;;7.86;100.00
64253;BME280;50592;52.958;-7.470;2024-02-21T02:01:13;99458.34;;;7.80;100.00
64253;BME280;50592;52.958;-7.470;2024-02-21T02:03:39;99457.63;;;7.88;100.00
64253;BME280;50592;52.958;-7.470;2024-02-21T02:06:15;99445.09;;;7.90;100.00
64253;BME280;50592;52.958;-7.470;2024-02-21T02:08:44;99441.38;;;7.93;100.00
64253;BME280;50592;52.958;-7.470;2024-02-21T02:11:13;99434.97;;;7.96;100.00
64253;BME280;50592;52.958;-7.470;2024-02-21T02:13:39;99431.66;;;7.93;100.00
64253;BME280;50592;52.958;-7.470;2024-02-21T02:16:05;99408.44;;;7.89;100.00
64253;BME280;50592;52.958;-7.470;2024-02-21T02:18:31;99400.59;;;7.97;100.00
64253;BME280;50592;52.958;-7.470;2024-02-21T02:20:57;99389.53;;;7.93;100.00
64253;BME280;50592;52.958;-7.470;2024-02-21T02:23:32;99384.03;;;8.05;100.00
64253;BME280;50592;52.958;-7.470;2024-02-21T02:25:59;99359.34;;;7.98;100.00
64253;BME280;50592;52.958;-7.470;2024-02-21T02:28:26;99351.44;;;7.98;100.00
64253;BME280;50592;52.958;-7.470;2024-02-21T02:31:00;99342.78;;;8.05;100.00
64253;BME280;50592;52.958;-7.470;2024-02-21T02:33:35;99316.75;;;8.02;100.00
64253;BME280;50592;52.958;-7.470;2024-02-21T02:36:25;99302.16;;;8.08;100.00
64253;BME280;50592;52.958;-7.470;2024-02-21T02:39:53;99278.66;;;8.15;100.00
64253;BME280;50592;52.958;-7.470;2024-02-21T02:47:39;99240.19;;;8.22;100.00
64253;BME280;50592;52.958;-7.470;2024-02-21T02:50:06;99238.38;;;8.23;100.00
64253;BME280;50592;52.958;-7.470;2024-02-21T02:52:33;99219.97;;;8.23;100.00
64253;BME280;50592;52.958;-7.470;2024-02-21T02:54:59;99202.03;;;8.26;100.00
64253;BME280;50592;52.958;-7.470;2024-02-21T02:57:25;99184.78;;;8.32;100.00
64253;BME280;50592;52.958;-7.470;2024-02-21T02:59:51;99171.97;;;8.37;100.00
64253;BME280;50592;52.958;-7.470;2024-02-21T03:02:17;99172.13;;;8.44;100.00
64253;BME280;50592;52.958;-7.470;2024-02-21T03:04:44;99159.28;;;8.49;100.00
64253;BME280;50592;52.958;-7.470;2024-02-21T03:07:11;99147.63;;;8.52;100.00
64253;BME280;50592;52.958;-7.470;2024-02-21T03:09:39;99132.16;;;8.57;100.00
64253;BME280;50592;52.958;-7.470;2024-02-21T03:12:06;99121.00;;;8.55;100.00
64253;BME280;50592;52.958;-7.470;2024-02-21T03:14:32;99106.16;;;8.62;100.00
64253;BME280;50592;52.958;-7.470;2024-02-21T03:17:24;99076.69;;;8.75;100.00
64253;BME280;50592;52.958;-7.470;2024-02-21T03:19:50;99074.72;;;8.69;100.00
64253;BME280;50592;52.958;-7.470;2024-02-21T03:22:18;99073.22;;;8.75;100.00
64253;BME280;50592;52.958;-7.470;2024-02-21T03:24:44;99052.66;;;8.78;100.00
64253;BME280;50592;52.958;-7.470;2024-02-21T03:27:11;99045.25;;;8.82;100.00
64253;BME280;50592;52.958;-7.470;2024-02-21T03:29:38;99042.72;;;8.89;100.00
64253;BME280;50592;52.958;-7.470;2024-02-21T03:32:04;99033.34;;;8.95;100.00
64253;BME280;50592;52.958;-7.470;2024-02-21T03:34:30;99005.00;;;8.97;100.00
64253;BME280;50592;52.958;-7.470;2024-02-21T03:37:18;98999.88;;;9.03;100.00
64253;BME280;50592;52.958;-7.470;2024-02-21T03:39:47;98986.88;;;9.02;100.00
64253;BME280;50592;52.958;-7.470;2024-02-21T03:42:13;98982.09;;;9.05;100.00
64253;BME280;50592;52.958;-7.470;2024-02-21T03:44:39;98970.19;;;9.10;100.00
64253;BME280;50592;52.958;-7.470;2024-02-21T03:47:07;98956.00;;;9.19;100.00
64253;BME280;50592;52.958;-7.470;2024-02-21T03:49:36;98945.44;;;9.19;100.00
64253;BME280;50592;52.958;-7.470;2024-02-21T03:52:28;98931.06;;;9.30;100.00
64253;BME280;50592;52.958;-7.470;2024-02-21T03:54:54;98909.66;;;9.25;100.00
64253;BME280;50592;52.958;-7.470;2024-02-21T03:57:21;98899.44;;;9.30;100.00
64253;BME280;50592;52.958;-7.470;2024-02-21T03:59:50;98891.97;;;9.34;100.00
64253;BME280;50592;52.958;-7.470;2024-02-21T04:02:26;98894.38;;;9.43;100.00
64253;BME280;50592;52.958;-7.470;2024-02-21T04:04:56;98866.91;;;9.38;100.00
64253;BME280;50592;52.958;-7.470;2024-02-21T04:07:22;98859.63;;;9.40;100.00
64253;BME280;50592;52.958;-7.470;2024-02-21T04:09:48;98855.00;;;9.42;100.00
64253;BME280;50592;52.958;-7.470;2024-02-21T04:12:14;98845.28;;;9.42;100.00
64253;BME280;50592;52.958;-7.470;2024-02-21T04:14:40;98860.06;;;9.52;100.00
64253;BME280;50592;52.958;-7.470;2024-02-21T04:17:06;98834.84;;;9.49;100.00
64253;BME280;50592;52.958;-7.470;2024-02-21T04:19:33;98836.13;;;9.53;100.00
64253;BME280;50592;52.958;-7.470;2024-02-21T04:22:28;98820.88;;;9.64;100.00
64253;BME280;50592;52.958;-7.470;2024-02-21T04:24:54;98815.94;;;9.61;100.00
64253;BME280;50592;52.958;-7.470;2024-02-21T04:27:20;98796.16;;;9.65;100.00
64253;BME280;50592;52.958;-7.470;2024-02-21T04:29:46;98799.41;;;9.67;100.00
64253;BME280;50592;52.958;-7.470;2024-02-21T04:32:14;98782.59;;;9.68;100.00
64253;BME280;50592;52.958;-7.470;2024-02-21T04:34:44;98771.88;;;9.70;100.00
64253;BME280;50592;52.958;-7.470;2024-02-21T04:37:12;98748.56;;;9.73;100.00
64253;BME280;50592;52.958;-7.470;2024-02-21T04:39:38;98709.44;;;9.77;100.00
64253;BME280;50592;52.958;-7.470;2024-02-21T04:42:07;98703.25;;;9.85;100.00
64253;BME280;50592;52.958;-7.470;2024-02-21T04:44:33;98715.38;;;9.79;100.00
64253;BME280;50592;52.958;-7.470;2024-02-21T04:46:59;98709.53;;;9.84;100.00
64253;BME280;50592;52.958;-7.470;2024-02-21T04:49:27;98709.53;;;9.84;100.00
64253;BME280;50592;52.958;-7.470;2024-02-21T04:51:53;98689.50;;;9.89;100.00
64253;BME280;50592;52.958;-7.470;2024-02-21T04:54:19;98684.03;;;9.91;100.00
64253;BME280;50592;52.958;-7.470;2024-02-21T04:56:58;98670.56;;;10.01;100.00
64253;BME280;50592;52.958;-7.470;2024-02-21T04:59:24;98661.03;;;10.00;100.00
64253;BME280;50592;52.958;-7.470;2024-02-21T05:02:16;98648.53;;;10.09;100.00
64253;BME280;50592;52.958;-7.470;2024-02-21T05:04:43;98647.09;;;10.06;100.00
64253;BME280;50592;52.958;-7.470;2024-02-21T05:07:12;98641.06;;;10.12;100.00
64253;BME280;50592;52.958;-7.470;2024-02-21T05:09:38;98622.66;;;10.19;100.00
64253;BME280;50592;52.958;-7.470;2024-02-21T05:12:04;98630.25;;;10.29;100.00
64253;BME280;50592;52.958;-7.470;2024-02-21T05:14:30;98621.56;;;10.35;100.00
64253;BME280;50592;52.958;-7.470;2024-02-21T05:17:12;98600.81;;;10.47;100.00
64253;BME280;50592;52.958;-7.470;2024-02-21T05:19:41;98579.28;;;10.50;100.00
64253;BME280;50592;52.958;-7.470;2024-02-21T05:22:10;98577.09;;;10.54;100.00
64253;BME280;50592;52.958;-7.470;2024-02-21T05:24:38;98567.78;;;10.58;100.00
64253;BME280;50592;52.958;-7.470;2024-02-21T05:27:35;98572.09;;;10.66;100.00
64253;BME280;50592;52.958;-7.470;2024-02-21T05:30:05;98569.84;;;10.63;100.00
64253;BME280;50592;52.958;-7.470;2024-02-21T05:32:41;98560.34;;;10.69;100.00
64253;BME280;50592;52.958;-7.470;2024-02-21T05:35:08;98534.47;;;10.64;100.00
64253;BME280;50592;52.958;-7.470;2024-02-21T05:37:37;98517.00;;;10.63;100.00
64253;BME280;50592;52.958;-7.470;2024-02-21T05:40:03;98504.63;;;10.63;100.00
64253;BME280;50592;52.958;-7.470;2024-02-21T05:42:29;98495.47;;;10.66;100.00
64253;BME280;50592;52.958;-7.470;2024-02-21T05:44:58;98488.44;;;10.73;100.00
64253;BME280;50592;52.958;-7.470;2024-02-21T05:47:25;98472.72;;;10.65;100.00
64253;BME280;50592;52.958;-7.470;2024-02-21T05:49:51;98462.72;;;10.60;100.00
64253;BME280;50592;52.958;-7.470;2024-02-21T05:52:32;98464.78;;;10.65;100.00
64253;BME280;50592;52.958;-7.470;2024-02-21T05:54:58;98453.97;;;10.60;100.00
64253;BME280;50592;52.958;-7.470;2024-02-21T05:57:30;98448.56;;;10.68;100.00
64253;BME280;50592;52.958;-7.470;2024-02-21T05:59:57;98431.22;;;10.59;100.00
64253;BME280;50592;52.958;-7.470;2024-02-21T06:02:23;98423.50;;;10.64;100.00
64253;BME280;50592;52.958;-7.470;2024-02-21T06:04:49;98396.91;;;10.65;100.00
64253;BME280;50592;52.958;-7.470;2024-02-21T06:07:15;98384.06;;;10.62;100.00
64253;BME280;50592;52.958;-7.470;2024-02-21T06:09:42;98391.00;;;10.63;100.00
64253;BME280;50592;52.958;-7.470;2024-02-21T06:12:13;98374.34;;;10.63;100.00
64253;BME280;50592;52.958;-7.470;2024-02-21T06:14:39;98383.09;;;10.63;100.00
64253;BME280;50592;52.958;-7.470;2024-02-21T06:17:40;98360.34;;;10.69;100.00
64253;BME280;50592;52.958;-7.470;2024-02-21T06:20:07;98371.31;;;10.66;100.00
64253;BME280;50592;52.958;-7.470;2024-02-21T06:22:33;98366.66;;;10.68;100.00
64253;BME280;50592;52.958;-7.470;2024-02-21T06:24:59;98373.53;;;10.69;100.00
64253;BME280;50592;52.958;-7.470;2024-02-21T06:27:25;98361.34;;;10.68;100.00
64253;BME280;50592;52.958;-7.470;2024-02-21T06:29:51;98338.41;;;10.69;100.00
64253;BME280;50592;52.958;-7.470;2024-02-21T06:32:17;98329.84;;;10.66;100.00
64253;BME280;50592;52.958;-7.470;2024-02-21T06:34:43;98346.34;;;10.75;100.00
64253;BME280;50592;52.958;-7.470;2024-02-21T06:37:10;98346.34;;;10.75;100.00
64253;BME280;50592;52.958;-7.470;2024-02-21T06:39:37;98330.91;;;10.79;100.00
64253;BME280;50592;52.958;-7.470;2024-02-21T06:42:04;98322.56;;;10.75;100.00
64253;BME280;50592;52.958;-7.470;2024-02-21T06:44:30;98300.00;;;10.73;100.00
64253;BME280;50592;52.958;-7.470;2024-02-21T06:47:23;98281.31;;;10.81;100.00
64253;BME280;50592;52.958;-7.470;2024-02-21T06:49:52;98288.19;;;10.75;100.00
64253;BME280;50592;52.958;-7.470;2024-02-21T06:52:18;98278.47;;;10.76;100.00
64253;BME280;50592;52.958;-7.470;2024-02-21T06:54:49;98292.88;;;10.80;100.00
64253;BME280;50592;52.958;-7.470;2024-02-21T06:57:31;98276.44;;;10.85;100.00
64253;BME280;50592;52.958;-7.470;2024-02-21T06:59:57;98258.53;;;10.80;100.00
64253;BME280;50592;52.958;-7.470;2024-02-21T07:02:23;98274.81;;;10.84;100.00
64253;BME280;50592;52.958;-7.470;2024-02-21T07:04:49;98254.50;;;10.84;100.00
64253;BME280;50592;52.958;-7.470;2024-02-21T07:07:15;98269.94;;;10.81;100.00
64253;BME280;50592;52.958;-7.470;2024-02-21T07:09:41;98253.44;;;10.78;100.00
64253;BME280;50592;52.958;-7.470;2024-02-21T07:12:07;98265.06;;;10.84;100.00
64253;BME280;50592;52.958;-7.470;2024-02-21T07:14:36;98267.09;;;10.89;100.00
64253;BME280;50592;52.958;-7.470;2024-02-21T07:17:28;98256.72;;;10.94;100.00
64253;BME280;50592;52.958;-7.470;2024-02-21T07:19:54;98257.53;;;10.88;100.00
64253;BME280;50592;52.958;-7.470;2024-02-21T07:22:22;98232.75;;;10.89;100.00
64253;BME280;50592;52.958;-7.470;2024-02-21T07:24:48;98239.25;;;10.93;100.00
64253;BME280;50592;52.958;-7.470;2024-02-21T07:27:15;98224.63;;;10.97;100.00
64253;BME280;50592;52.958;-7.470;2024-02-21T07:29:42;98203.28;;;10.99;100.00
64253;BME280;50592;52.958;-7.470;2024-02-21T07:32:10;98225.84;;;11.01;100.00
64253;BME280;50592;52.958;-7.470;2024-02-21T07:34:39;98220.16;;;11.04;100.00
64253;BME280;50592;52.958;-7.470;2024-02-21T07:37:25;98217.50;;;11.04;100.00
64253;BME280;50592;52.958;-7.470;2024-02-21T07:39:51;98229.31;;;11.02;100.00
64253;BME280;50592;52.958;-7.470;2024-02-21T07:42:17;98218.75;;;11.02;100.00
64253;BME280;50592;52.958;-7.470;2024-02-21T07:44:46;98211.19;;;11.06;100.00
64253;BME280;50592;52.958;-7.470;2024-02-21T07:47:12;98194.34;;;11.07;100.00
64253;BME280;50592;52.958;-7.470;2024-02-21T07:49:45;98189.22;;;11.12;100.00
64253;BME280;50592;52.958;-7.470;2024-02-21T07:52:14;98190.66;;;11.08;100.00
64253;BME280;50592;52.958;-7.470;2024-02-21T07:54:41;98189.44;;;11.10;100.00
64253;BME280;50592;52.958;-7.470;2024-02-21T07:57:07;98186.38;;;11.13;100.00
64253;BME280;50592;52.958;-7.470;2024-02-21T07:59:36;98180.91;;;11.15;100.00
64253;BME280;50592;52.958;-7.470;2024-02-21T08:02:34;98178.47;;;11.20;100.00
64253;BME280;50592;52.958;-7.470;2024-02-21T08:05:00;98170.31;;;11.15;100.00
64253;BME280;50592;52.958;-7.470;2024-02-21T08:07:27;98179.06;;;11.15;100.00
64253;BME280;50592;52.958;-7.470;2024-02-21T08:09:54;98163.00;;;11.17;100.00
64253;BME280;50592;52.958;-7.470;2024-02-21T08:12:20;98154.03;;;11.18;100.00
64253;BME280;50592;52.958;-7.470;2024-02-21T08:14:46;98165.44;;;11.19;100.00
64253;BME280;50592;52.958;-7.470;2024-02-21T08:17:13;98164.22;;;11.21;100.00
64253;BME280;50592;52.958;-7.470;2024-02-21T08:19:39;98169.28;;;11.23;100.00
64253;BME280;50592;52.958;-7.470;2024-02-21T08:22:37;98164.41;;;11.33;100.00
64253;BME280;50592;52.958;-7.470;2024-02-21T08:25:03;98157.91;;;11.29;100.00
64253;BME280;50592;52.958;-7.470;2024-02-21T08:30:37;98156.47;;;11.33;100.00
64253;BME280;50592;52.958;-7.470;2024-02-21T08:37:17;98165.19;;;11.47;100.00
64253;BME280;50592;52.958;-7.470;2024-02-21T08:39:50;98161.94;;;11.45;100.00
64253;BME280;50592;52.958;-7.470;2024-02-21T08:43:00;98162.56;;;11.40;100.00
64253;BME280;50592;52.958;-7.470;2024-02-21T08:50:02;98184.69;;;11.60;100.00
64253;BME280;50592;52.958;-7.470;2024-02-21T09:00:27;98208.09;;;11.70;100.00
64253;BME280;50592;52.958;-7.470;2024-02-21T09:03:22;98197.91;;;11.73;100.00
64253;BME280;50592;52.958;-7.470;2024-02-21T09:15:17;98212.56;;;11.76;100.00
64253;BME280;50592;52.958;-7.470;2024-02-21T09:18:37;98226.19;;;11.79;100.00
64253;BME280;50592;52.958;-7.470;2024-02-21T09:32:59;98230.81;;;11.98;100.00
64253;BME280;50592;52.958;-7.470;2024-02-21T09:47:02;98230.00;;;12.11;100.00
64253;BME280;50592;52.958;-7.470;2024-02-21T09:49:35;98240.00;;;12.09;100.00
64253;BME280;50592;52.958;-7.470;2024-02-21T09:52:47;98240.38;;;12.06;100.00
64253;BME280;50592;52.958;-7.470;2024-02-21T09:55:49;98259.72;;;12.06;100.00
64253;BME280;50592;52.958;-7.470;2024-02-21T09:59:37;98250.16;;;12.05;100.00
64253;BME280;50592;52.958;-7.470;2024-02-21T10:03:40;98260.97;;;12.10;100.00
64253;BME280;50592;52.958;-7.470;2024-02-21T10:10:56;98285.81;;;12.09;100.00
64253;BME280;50592;52.958;-7.470;2024-02-21T10:14:06;98302.31;;;12.11;100.00
64253;BME280;50592;52.958;-7.470;2024-02-21T10:16:41;98303.34;;;12.10;100.00
64253;BME280;50592;52.958;-7.470;2024-02-21T10:19:25;98310.03;;;12.06;100.00
64253;BME280;50592;52.958;-7.470;2024-02-21T10:22:15;98314.13;;;11.95;100.00
64253;BME280;50592;52.958;-7.470;2024-02-21T10:25:10;98308.84;;;11.95;100.00
64253;BME280;50592;52.958;-7.470;2024-02-21T10:27:40;98325.53;;;11.96;100.00
64253;BME280;50592;52.958;-7.470;2024-02-21T10:30:14;98337.53;;;12.05;100.00
64253;BME280;50592;52.958;-7.470;2024-02-21T10:32:56;98329.38;;;12.07;100.00
64253;BME280;50592;52.958;-7.470;2024-02-21T10:35:45;98320.63;;;12.06;100.00
64253;BME280;50592;52.958;-7.470;2024-02-21T10:38:22;98325.53;;;12.09;100.00
64253;BME280;50592;52.958;-7.470;2024-02-21T10:41:10;98317.16;;;12.06;100.00
64253;BME280;50592;52.958;-7.470;2024-02-21T10:43:56;98332.66;;;12.02;100.00
64253;BME280;50592;52.958;-7.470;2024-02-21T10:47:37;98340.63;;;12.09;100.00
64253;BME280;50592;52.958;-7.470;2024-02-21T10:56:47;98351.97;;;12.02;100.00
64253;BME280;50592;52.958;-7.470;2024-02-21T10:59:37;98365.00;;;12.04;100.00
64253;BME280;50592;52.958;-7.470;2024-02-21T11:02:14;98357.31;;;11.96;100.00
64253;BME280;50592;52.958;-7.470;2024-02-21T11:05:21;98361.56;;;11.90;100.00
64253;BME280;50592;52.958;-7.470;2024-02-21T11:07:51;98360.16;;;11.81;100.00
64253;BME280;50592;52.958;-7.470;2024-02-21T11:10:25;98380.72;;;11.85;100.00
64253;BME280;50592;52.958;-7.470;2024-02-21T11:13:10;98387.25;;;11.83;100.00
64253;BME280;50592;52.958;-7.470;2024-02-21T11:15:49;98400.25;;;11.77;100.00
64253;BME280;50592;52.958;-7.470;2024-02-21T11:18:27;98397.81;;;11.76;100.00
64253;BME280;50592;52.958;-7.470;2024-02-21T11:21:02;98389.06;;;11.75;100.00
64253;BME280;50592;52.958;-7.470;2024-02-21T11:23:34;98406.78;;;11.68;100.00
64253;BME280;50592;52.958;-7.470;2024-02-21T11:26:06;98409.84;;;11.72;100.00
64253;BME280;50592;52.958;-7.470;2024-02-21T11:28:35;98410.03;;;11.84;100.00
64253;BME280;50592;52.958;-7.470;2024-02-21T11:31:17;98412.28;;;11.80;100.00
64253;BME280;50592;52.958;-7.470;2024-02-21T11:33:47;98420.41;;;11.78;100.00
64253;BME280;50592;52.958;-7.470;2024-02-21T11:36:54;98400.28;;;11.84;100.00
64253;BME280;50592;52.958;-7.470;2024-02-21T11:39:28;98423.69;;;11.87;100.00
64253;BME280;50592;52.958;-7.470;2024-02-21T11:42:16;98438.97;;;11.92;100.00
64253;BME280;50592;52.958;-7.470;2024-02-21T11:44:50;98445.66;;;11.95;100.00
64253;BME280;50592;52.958;-7.470;2024-02-21T11:50:53;98459.94;;;12.00;100.00
64253;BME280;50592;52.958;-7.470;2024-02-21T11:53:35;98466.03;;;12.01;100.00
64253;BME280;50592;52.958;-7.470;2024-02-21T11:56:01;98473.56;;;12.04;100.00
64253;BME280;50592;52.958;-7.470;2024-02-21T11:58:33;98480.75;;;12.17;100.00
64253;BME280;50592;52.958;-7.470;2024-02-21T12:01:00;98481.16;;;12.21;100.00
64253;BME280;50592;52.958;-7.470;2024-02-21T12:03:28;98484.41;;;12.36;100.00
64253;BME280;50592;52.958;-7.470;2024-02-21T12:06:29;98477.47;;;12.49;100.00
64253;BME280;50592;52.958;-7.470;2024-02-21T12:09:04;98481.97;;;12.48;100.00
64253;BME280;50592;52.958;-7.470;2024-02-21T12:11:38;98478.50;;;12.41;100.00
64253;BME280;50592;52.958;-7.470;2024-02-21T12:14:10;98480.16;;;12.42;100.00
64253;BME280;50592;52.958;-7.470;2024-02-21T12:16:50;98472.19;;;12.28;100.00
64253;BME280;50592;52.958;-7.470;2024-02-21T12:19:46;98479.13;;;12.23;100.00
64253;BME280;50592;52.958;-7.470;2024-02-21T12:22:27;98491.34;;;12.24;100.00
64253;BME280;50592;52.958;-7.470;2024-02-21T12:25:21;98481.78;;;12.16;100.00
64253;BME280;50592;52.958;-7.470;2024-02-21T12:28:12;98481.78;;;12.16;100.00
64253;BME280;50592;52.958;-7.470;2024-02-21T12:30:43;98477.91;;;12.25;100.00
64253;BME280;50592;52.958;-7.470;2024-02-21T12:33:15;98464.88;;;12.31;100.00
64253;BME280;50592;52.958;-7.470;2024-02-21T12:35:52;98472.41;;;12.27;100.00
64253;BME280;50592;52.958;-7.470;2024-02-21T12:38:36;98475.47;;;12.24;100.00
64253;BME280;50592;52.958;-7.470;2024-02-21T12:41:14;98474.25;;;12.20;100.00
64253;BME280;50592;52.958;-7.470;2024-02-21T12:44:18;98476.47;;;12.16;100.00
64253;BME280;50592;52.958;-7.470;2024-02-21T12:46:50;98471.56;;;12.06;100.00
64253;BME280;50592;52.958;-7.470;2024-02-21T12:49:34;98475.03;;;12.07;100.00
64253;BME280;50592;52.958;-7.470;2024-02-21T12:52:02;98474.59;;;12.03;100.00
64253;BME280;50592;52.958;-7.470;2024-02-21T12:54:31;98473.38;;;12.06;100.00
64253;BME280;50592;52.958;-7.470;2024-02-21T12:57:35;98471.56;;;12.06;100.00
64253;BME280;50592;52.958;-7.470;2024-02-21T13:00:23;98466.66;;;12.03;100.00
64253;BME280;50592;52.958;-7.470;2024-02-21T13:03:23;98459.94;;;11.94;100.00
64253;BME280;50592;52.958;-7.470;2024-02-21T13:05:54;98468.66;;;11.74;100.00
64253;BME280;50592;52.958;-7.470;2024-02-21T13:08:30;98468.25;;;11.70;100.00
64253;BME280;50592;52.958;-7.470;2024-02-21T13:11:01;98479.44;;;11.65;100.00
64253;BME280;50592;52.958;-7.470;2024-02-21T13:13:27;98482.50;;;11.62;100.00
64253;BME280;50592;52.958;-7.470;2024-02-21T13:16:00;98484.06;;;11.50;100.00
64253;BME280;50592;52.958;-7.470;2024-02-21T13:18:26;98484.19;;;11.28;100.00
64253;BME280;50592;52.958;-7.470;2024-02-21T13:20:57;98493.53;;;11.17;100.00
64253;BME280;50592;52.958;-7.470;2024-02-21T13:23:38;98495.94;;;11.12;100.00
64253;BME280;50592;52.958;-7.470;2024-02-21T13:26:26;98495.13;;;11.18;100.00
64253;BME280;50592;52.958;-7.470;2024-02-21T13:28:56;98487.59;;;11.15;100.00
64253;BME280;50592;52.958;-7.470;2024-02-21T13:32:00;98488.19;;;11.03;100.00
64253;BME280;50592;52.958;-7.470;2024-02-21T13:34:30;98478.22;;;11.06;100.00
64253;BME280;50592;52.958;-7.470;2024-02-21T13:37:12;98479.84;;;11.07;100.00
64253;BME280;50592;52.958;-7.470;2024-02-21T13:40:20;98488.78;;;11.06;100.00
64253;BME280;50592;52.958;-7.470;2024-02-21T13:42:50;98474.53;;;11.00;100.00
64253;BME280;50592;52.958;-7.470;2024-02-21T13:45:23;98465.81;;;11.06;100.00
64253;BME280;50592;52.958;-7.470;2024-02-21T13:47:58;98471.31;;;11.04;100.00
64253;BME280;50592;52.958;-7.470;2024-02-21T13:50:54;98477.03;;;11.15;100.00
64253;BME280;50592;52.958;-7.470;2024-02-21T13:54:19;98481.31;;;11.16;100.00
64253;BME280;50592;52.958;-7.470;2024-02-21T13:56:50;98486.19;;;11.12;100.00
64253;BME280;50592;52.958;-7.470;2024-02-21T13:59:17;98475.16;;;11.09;100.00
64253;BME280;50592;52.958;-7.470;2024-02-21T14:01:55;98468.50;;;11.13;100.00
64253;BME280;50592;52.958;-7.470;2024-02-21T14:04:21;98474.00;;;11.18;100.00
64253;BME280;50592;52.958;-7.470;2024-02-21T14:06:50;98469.00;;;11.37;100.00
64253;BME280;50592;52.958;-7.470;2024-02-21T14:09:19;98473.31;;;11.58;100.00
64253;BME280;50592;52.958;-7.470;2024-02-21T14:12:08;98452.00;;;11.80;100.00
64253;BME280;50592;52.958;-7.470;2024-02-21T14:14:49;98460.16;;;11.99;100.00
64253;BME280;50592;52.958;-7.470;2024-02-21T14:17:15;98456.47;;;11.93;100.00
64253;BME280;50592;52.958;-7.470;2024-02-21T14:19:41;98446.72;;;11.80;100.00
64253;BME280;50592;52.958;-7.470;2024-02-21T14:22:07;98451.38;;;11.78;100.00
64253;BME280;50592;52.958;-7.470;2024-02-21T14:24:43;98452.16;;;11.78;100.00
64253;BME280;50592;52.958;-7.470;2024-02-21T14:27:09;98448.72;;;11.78;100.00
64253;BME280;50592;52.958;-7.470;2024-02-21T14:29:38;98438.16;;;11.85;100.00
64253;BME280;50592;52.958;-7.470;2024-02-21T14:32:07;98419.41;;;11.93;100.00
64253;BME280;50592;52.958;-7.470;2024-02-21T14:34:38;98418.59;;;11.93;100.00
64253;BME280;50592;52.958;-7.470;2024-02-21T14:37:06;98425.94;;;12.11;100.00
64253;BME280;50592;52.958;-7.470;2024-02-21T14:39:38;98425.72;;;12.06;100.00
64253;BME280;50592;52.958;-7.470;2024-02-21T14:42:36;98430.63;;;11.95;100.00
64253;BME280;50592;52.958;-7.470;2024-02-21T14:45:11;98443.84;;;11.95;100.00
64253;BME280;50592;52.958;-7.470;2024-02-21T14:48:14;98412.47;;;11.78;100.00
64253;BME280;50592;52.958;-7.470;2024-02-21T14:50:55;98426.31;;;11.74;100.00
64253;BME280;50592;52.958;-7.470;2024-02-21T14:53:33;98421.03;;;11.81;100.00
64253;BME280;50592;52.958;-7.470;2024-02-21T14:56:27;98419.00;;;11.83;100.00
64253;BME280;50592;52.958;-7.470;2024-02-21T14:59:09;98431.00;;;11.85;100.00
64253;BME280;50592;52.958;-7.470;2024-02-21T15:01:38;98421.25;;;11.86;100.00
64253;BME280;50592;52.958;-7.470;2024-02-21T15:04:05;98424.09;;;11.77;100.00
64253;BME280;50592;52.958;-7.470;2024-02-21T15:06:31;98409.22;;;11.70;100.00
64253;BME280;50592;52.958;-7.470;2024-02-21T15:08:59;98404.94;;;11.75;100.00
64253;BME280;50592;52.958;-7.470;2024-02-21T15:11:25;98414.94;;;11.73;100.00
64253;BME280;50592;52.958;-7.470;2024-02-21T15:14:10;98407.00;;;11.73;100.00
64253;BME280;50592;52.958;-7.470;2024-02-21T15:16:50;98414.72;;;11.75;100.00